createdAt,value
2019-05-23T00:01:33.565Z,57.10
2019-05-23T00:04:19.822Z,57.10
2019-05-23T00:06:48.294Z,57.00
2019-05-23T00:09:17.498Z,57.00
2019-05-23T00:11:46.997Z,57.00
2019-05-23T00:14:20.341Z,57.10
2019-05-23T00:16:48.258Z,57.10
2019-05-23T00:19:17.347Z,57.30
2019-05-23T00:21:45.954Z,57.30
2019-05-23T00:24:14.016Z,57.30
2019-05-23T00:26:43.028Z,57.20
2019-05-23T00:29:11.185Z,57.30
2019-05-23T00:31:41.273Z,57.20
2019-05-23T00:34:10.697Z,57.40
2019-05-23T00:36:38.573Z,57.50
2019-05-23T00:39:07.814Z,57.50
2019-05-23T00:41:37.081Z,57.50
2019-05-23T00:44:05.119Z,57.50
2019-05-23T00:46:33.822Z,57.50
2019-05-23T00:49:01.683Z,57.60
2019-05-23T00:51:29.851Z,57.70
2019-05-23T00:53:57.718Z,57.70
2019-05-23T00:56:27.233Z,57.80
2019-05-23T00:58:55.107Z,57.90
2019-05-23T01:01:24.084Z,57.90
2019-05-23T01:03:53.083Z,57.70
2019-05-23T01:06:21.462Z,57.80
2019-05-23T01:08:50.292Z,57.90
2019-05-23T01:11:19.139Z,57.80
2019-05-23T01:13:48.239Z,57.70
2019-05-23T01:16:16.307Z,57.70
2019-05-23T01:18:44.101Z,57.60
2019-05-23T01:21:16.479Z,57.80
2019-05-23T01:23:48.695Z,57.60
2019-05-23T01:26:16.795Z,57.70
2019-05-23T01:28:45.573Z,57.60
2019-05-23T01:31:23.792Z,57.40
2019-05-23T01:33:53.383Z,57.40
2019-05-23T01:36:21.255Z,57.40
2019-05-23T01:38:49.210Z,57.30
2019-05-23T01:41:17.507Z,57.40
2019-05-23T01:43:45.671Z,57.40
2019-05-23T01:46:13.743Z,57.30
2019-05-23T01:48:42.011Z,57.40
2019-05-23T01:51:11.728Z,57.40
2019-05-23T01:53:40.610Z,57.20
2019-05-23T01:56:09.194Z,57.20
2019-05-23T01:58:37.007Z,57.20
2019-05-23T02:01:04.951Z,57.10
2019-05-23T02:03:33.654Z,57.20
2019-05-23T02:06:01.475Z,57.10
2019-05-23T02:08:29.448Z,57.20
2019-05-23T02:10:57.321Z,57.20
2019-05-23T02:13:25.279Z,57.10
2019-05-23T02:15:53.873Z,57.20
2019-05-23T02:18:21.848Z,57.00
2019-05-23T02:20:49.819Z,57.00
2019-05-23T02:23:18.197Z,57.10
2019-05-23T02:25:46.362Z,57.00
2019-05-23T02:28:14.321Z,57.00
2019-05-23T02:30:42.405Z,57.10
2019-05-23T02:33:10.447Z,57.10
2019-05-23T02:35:38.361Z,57.00
2019-05-23T02:38:23.003Z,57.10
2019-05-23T02:40:52.499Z,57.10
2019-05-23T02:43:27.838Z,57.10
2019-05-23T02:45:57.339Z,57.00
2019-05-23T02:48:37.396Z,57.10
2019-05-23T02:51:07.318Z,57.10
2019-05-23T02:53:35.787Z,57.10
2019-05-23T02:56:05.605Z,57.00
2019-05-23T02:58:39.456Z,57.10
2019-05-23T03:01:10.391Z,57.10
2019-05-23T03:03:39.452Z,57.00
2019-05-23T03:06:08.943Z,57.00
2019-05-23T03:08:37.161Z,57.00
2019-05-23T03:11:08.467Z,57.00
2019-05-23T03:13:38.097Z,57.00
2019-05-23T03:16:07.448Z,57.00
2019-05-23T03:18:37.867Z,57.00
2019-05-23T03:21:05.896Z,57.00
2019-05-23T03:23:34.065Z,57.00
2019-05-23T03:26:03.866Z,56.90
2019-05-23T03:28:36.747Z,57.00
2019-05-23T03:31:28.341Z,57.00
2019-05-23T03:33:41.924Z,56.90
2019-05-23T03:36:10.274Z,56.90
2019-05-23T03:38:38.343Z,57.40
2019-05-23T03:41:06.511Z,56.90
2019-05-23T03:43:36.022Z,56.90
2019-05-23T03:46:05.529Z,56.90
2019-05-23T03:48:34.908Z,57.00
2019-05-23T03:51:03.117Z,57.00
2019-05-23T03:53:31.993Z,57.10
2019-05-23T03:56:01.309Z,56.90
2019-05-23T03:58:30.107Z,56.80
2019-05-23T04:00:59.714Z,56.80
2019-05-23T04:03:27.664Z,56.70
2019-05-23T04:05:56.005Z,56.70
2019-05-23T04:08:24.650Z,56.60
2019-05-23T04:10:52.685Z,56.70
2019-05-23T04:13:20.979Z,56.40
2019-05-23T04:15:48.930Z,56.30
2019-05-23T04:18:16.839Z,56.40
2019-05-23T04:20:44.882Z,56.40
2019-05-23T04:23:13.681Z,56.40
2019-05-23T04:25:42.172Z,56.40
2019-05-23T04:28:09.952Z,56.50
2019-05-23T04:30:38.191Z,56.30
2019-05-23T04:33:07.000Z,56.30
2019-05-23T04:35:34.783Z,56.40
2019-05-23T04:38:03.140Z,56.30
2019-05-23T04:40:31.999Z,56.20
2019-05-23T04:43:00.185Z,56.30
2019-05-23T04:45:28.984Z,55.90
2019-05-23T04:47:56.819Z,56.10
2019-05-23T04:50:24.631Z,55.90
2019-05-23T04:52:53.009Z,56.10
2019-05-23T04:55:21.114Z,55.80
2019-05-23T04:57:49.447Z,55.60
2019-05-23T05:00:18.816Z,55.80
2019-05-23T05:02:46.687Z,55.90
2019-05-23T05:05:14.868Z,55.90
2019-05-23T05:07:42.878Z,55.80
2019-05-23T05:10:12.637Z,55.80
2019-05-23T05:12:40.654Z,55.60
2019-05-23T05:15:08.571Z,55.50
2019-05-23T05:17:36.666Z,55.40
2019-05-23T05:20:05.239Z,55.30
2019-05-23T05:22:33.465Z,55.10
2019-05-23T05:25:01.310Z,55.30
2019-05-23T05:27:30.474Z,55.00
2019-05-23T05:29:58.386Z,55.00
2019-05-23T05:32:43.302Z,55.00
2019-05-23T05:34:57.270Z,55.00
2019-05-23T05:37:25.228Z,55.10
2019-05-23T05:39:53.179Z,55.00
2019-05-23T05:42:21.561Z,55.30
2019-05-23T05:44:52.150Z,55.30
2019-05-23T05:47:20.477Z,55.10
2019-05-23T05:49:48.446Z,55.10
2019-05-23T05:52:16.911Z,54.90
2019-05-23T05:54:44.789Z,55.00
2019-05-23T05:57:12.648Z,55.00
2019-05-23T05:59:40.733Z,55.10
2019-05-23T06:02:10.232Z,55.20
2019-05-23T06:04:38.192Z,55.20
2019-05-23T06:07:23.173Z,54.90
2019-05-23T06:09:52.936Z,54.90
2019-05-23T06:12:21.054Z,54.60
2019-05-23T06:14:48.913Z,54.60
2019-05-23T06:17:18.017Z,54.70
2019-05-23T06:19:46.076Z,54.70
2019-05-23T06:22:14.569Z,54.70
2019-05-23T06:24:49.301Z,54.70
2019-05-23T06:27:13.680Z,54.80
2019-05-23T06:29:41.652Z,54.70
2019-05-23T06:32:11.025Z,53.80
2019-05-23T06:34:39.229Z,52.80
2019-05-23T06:37:07.188Z,53.20
2019-05-23T06:39:35.105Z,52.80
2019-05-23T06:42:03.223Z,52.90
2019-05-23T06:44:31.746Z,52.80
2019-05-23T06:46:59.749Z,52.30
2019-05-23T06:49:27.540Z,51.90
2019-05-23T06:51:55.397Z,51.60
2019-05-23T06:54:23.126Z,52.00
2019-05-23T06:56:51.029Z,51.90
2019-05-23T06:59:19.196Z,51.70
2019-05-23T07:01:47.098Z,51.80
2019-05-23T07:04:15.046Z,51.50
2019-05-23T07:06:42.743Z,51.90
2019-05-23T07:09:12.309Z,51.70
2019-05-23T07:11:40.585Z,52.20
2019-05-23T07:14:08.445Z,51.40
2019-05-23T07:16:36.428Z,52.60
2019-05-23T07:19:04.245Z,52.10
2019-05-23T07:21:32.357Z,52.00
2019-05-23T07:24:00.216Z,52.20
2019-05-23T07:26:28.912Z,52.20
2019-05-23T07:28:56.978Z,52.50
2019-05-23T07:31:24.952Z,52.80
2019-05-23T07:34:01.577Z,52.40
2019-05-23T07:36:22.216Z,52.00
2019-05-23T07:38:50.191Z,51.70
2019-05-23T07:41:18.381Z,52.00
2019-05-23T07:43:46.461Z,52.70
2019-05-23T07:46:14.577Z,52.30
2019-05-23T07:48:43.207Z,51.50
2019-05-23T07:51:11.187Z,52.20
2019-05-23T07:53:43.990Z,51.60
2019-05-23T07:56:13.895Z,51.30
2019-05-23T07:58:42.130Z,51.30
2019-05-23T08:01:11.643Z,51.20
2019-05-23T08:03:40.639Z,51.10
2019-05-23T08:06:09.215Z,50.80
2019-05-23T08:08:37.386Z,50.50
2019-05-23T08:11:05.345Z,51.30
2019-05-23T08:13:34.046Z,51.60
2019-05-23T08:16:02.069Z,51.70
2019-05-23T08:18:30.087Z,51.50
2019-05-23T08:20:57.968Z,50.90
2019-05-23T08:23:26.055Z,50.20
2019-05-23T08:25:54.201Z,50.00
2019-05-23T08:28:22.010Z,49.80
2019-05-23T08:30:50.039Z,50.90
2019-05-23T08:33:18.003Z,50.50
2019-05-23T08:35:46.380Z,50.10
2019-05-23T08:38:14.251Z,50.40
2019-05-23T08:40:42.220Z,50.50
2019-05-23T08:43:10.175Z,50.30
2019-05-23T08:45:38.259Z,50.00
2019-05-23T08:48:06.361Z,50.20
2019-05-23T08:50:35.221Z,49.50
2019-05-23T08:53:03.185Z,49.80
2019-05-23T08:55:31.874Z,49.10
2019-05-23T08:57:59.826Z,48.80
2019-05-23T09:00:29.236Z,47.90
2019-05-23T09:02:58.659Z,48.50
2019-05-23T09:05:28.363Z,48.80
2019-05-23T09:07:56.515Z,49.10
2019-05-23T09:10:24.623Z,49.10
2019-05-23T09:12:52.699Z,49.10
2019-05-23T09:15:20.525Z,48.80
2019-05-23T09:17:53.590Z,48.70
2019-05-23T09:20:18.514Z,48.10
2019-05-23T09:22:46.481Z,48.20
2019-05-23T09:25:14.495Z,48.50
2019-05-23T09:27:42.429Z,48.40
2019-05-23T09:30:10.991Z,48.20
2019-05-23T09:32:40.815Z,48.10
2019-05-23T09:35:20.586Z,48.40
2019-05-23T09:37:38.305Z,48.50
2019-05-23T09:40:06.255Z,48.80
2019-05-23T09:42:34.133Z,48.60
2019-05-23T09:45:02.249Z,48.70
2019-05-23T09:47:30.159Z,48.60
2019-05-23T09:49:58.143Z,48.90
2019-05-23T09:52:26.714Z,48.70
2019-05-23T09:54:54.563Z,48.50
2019-05-23T09:57:22.456Z,48.70
2019-05-23T09:59:50.311Z,48.50
2019-05-23T10:02:18.708Z,48.70
2019-05-23T10:04:46.659Z,48.80
2019-05-23T10:07:14.936Z,48.70
2019-05-23T10:09:43.019Z,48.70
2019-05-23T10:12:10.918Z,48.80
2019-05-23T10:14:39.876Z,48.70
2019-05-23T10:17:08.243Z,48.70
2019-05-23T10:19:36.497Z,48.70
2019-05-23T10:22:06.067Z,48.50
2019-05-23T10:24:34.110Z,48.80
2019-05-23T10:27:02.279Z,49.00
2019-05-23T10:29:30.182Z,49.20
2019-05-23T10:31:58.103Z,49.10
2019-05-23T10:34:26.725Z,49.10
2019-05-23T10:36:54.684Z,49.30
2019-05-23T10:39:22.590Z,49.30
2019-05-23T10:41:50.698Z,49.40
2019-05-23T10:44:18.585Z,49.00
2019-05-23T10:46:46.631Z,49.00
2019-05-23T10:49:14.551Z,48.80
2019-05-23T10:51:42.463Z,48.90
2019-05-23T10:54:10.458Z,48.70
2019-05-23T10:56:38.944Z,48.40
2019-05-23T10:59:06.937Z,48.20
2019-05-23T11:01:35.302Z,48.00
2019-05-23T11:04:03.772Z,48.00
2019-05-23T11:06:32.281Z,47.90
2019-05-23T11:09:00.621Z,47.60
2019-05-23T11:11:28.818Z,48.00
2019-05-23T11:13:57.006Z,47.80
2019-05-23T11:16:25.135Z,47.80
2019-05-23T11:18:53.124Z,48.10
2019-05-23T11:21:22.114Z,47.50
2019-05-23T11:23:51.696Z,47.70
2019-05-23T11:26:19.603Z,47.80
2019-05-23T11:28:47.944Z,47.90
2019-05-23T11:31:16.025Z,47.90
2019-05-23T11:33:43.982Z,48.00
2019-05-23T11:36:13.593Z,47.90
2019-05-23T11:38:41.452Z,47.60
2019-05-23T11:41:09.531Z,48.20
2019-05-23T11:43:37.921Z,46.70
2019-05-23T11:46:10.180Z,46.20
2019-05-23T11:48:38.146Z,46.10
2019-05-23T11:51:06.036Z,46.70
2019-05-23T11:53:34.791Z,47.10
2019-05-23T11:56:02.753Z,47.40
2019-05-23T11:58:32.660Z,47.40
2019-05-23T12:01:19.905Z,47.50
2019-05-23T12:03:41.842Z,47.20
2019-05-23T12:06:09.792Z,46.60
2019-05-23T12:08:37.724Z,46.50
2019-05-23T12:11:05.656Z,47.30
2019-05-23T12:13:33.498Z,46.70
2019-05-23T12:16:01.564Z,46.70
2019-05-23T12:18:29.645Z,46.30
2019-05-23T12:20:59.583Z,46.40
2019-05-23T12:23:27.171Z,45.80
2019-05-23T12:25:55.192Z,46.00
2019-05-23T12:28:24.379Z,45.80
2019-05-23T12:30:52.347Z,45.90
2019-05-23T12:33:20.327Z,46.00
2019-05-23T12:35:48.400Z,46.00
2019-05-23T12:38:16.680Z,45.70
2019-05-23T12:40:44.822Z,45.90
2019-05-23T12:43:12.816Z,46.40
2019-05-23T12:45:40.888Z,46.40
2019-05-23T12:48:15.938Z,46.30
2019-05-23T12:50:45.322Z,46.30
2019-05-23T12:53:14.897Z,47.00
2019-05-23T12:55:42.785Z,46.60
2019-05-23T12:58:10.839Z,46.60
2019-05-23T13:00:40.739Z,46.70
2019-05-23T13:03:09.351Z,46.80
2019-05-23T13:05:37.452Z,46.90
2019-05-23T13:08:06.266Z,46.80
2019-05-23T13:10:35.123Z,46.90
2019-05-23T13:13:03.076Z,47.00
2019-05-23T13:15:31.186Z,46.80
2019-05-23T13:17:59.230Z,46.60
2019-05-23T13:20:27.389Z,46.50
2019-05-23T13:22:55.384Z,46.60
2019-05-23T13:25:24.972Z,46.80
2019-05-23T13:27:52.935Z,46.80
2019-05-23T13:30:21.110Z,46.90
2019-05-23T13:32:49.289Z,47.00
2019-05-23T13:35:17.315Z,46.90
2019-05-23T13:37:53.552Z,47.20
2019-05-23T13:40:15.162Z,46.80
2019-05-23T13:42:43.421Z,47.20
2019-05-23T13:45:11.457Z,47.30
2019-05-23T13:47:59.137Z,47.40
2019-05-23T13:50:27.813Z,47.60
2019-05-23T13:52:55.974Z,47.50
2019-05-23T13:55:24.599Z,47.40
2019-05-23T13:57:52.623Z,47.50
2019-05-23T14:00:21.125Z,47.50
2019-05-23T14:02:48.976Z,47.60
2019-05-23T14:05:19.202Z,47.50
2019-05-23T14:07:47.170Z,47.60
2019-05-23T14:10:15.514Z,47.50
2019-05-23T14:12:43.618Z,47.40
2019-05-23T14:15:13.026Z,47.40
2019-05-23T14:17:42.399Z,47.30
2019-05-23T14:20:10.392Z,47.30
2019-05-23T14:22:42.761Z,47.20
2019-05-23T14:25:10.834Z,47.20
2019-05-23T14:27:49.152Z,47.10
2019-05-23T14:30:37.501Z,47.20
2019-05-23T14:33:23.899Z,47.20
2019-05-23T14:35:53.391Z,47.00
2019-05-23T14:38:30.936Z,47.00
2019-05-23T14:40:52.429Z,46.90
2019-05-23T14:43:24.591Z,47.00
2019-05-23T14:46:03.442Z,47.50
2019-05-23T14:48:33.212Z,46.90
2019-05-23T14:51:15.524Z,46.90
2019-05-23T14:53:45.127Z,46.90
2019-05-23T14:56:13.074Z,46.90
2019-05-23T14:58:40.868Z,46.80
2019-05-23T15:01:10.713Z,46.70
2019-05-23T15:03:39.111Z,46.80
2019-05-23T15:06:06.796Z,47.00
2019-05-23T15:08:50.585Z,46.80
2019-05-23T15:11:04.886Z,46.80
2019-05-23T15:13:32.750Z,46.80
2019-05-23T15:16:00.498Z,46.80
2019-05-23T15:18:28.357Z,47.00
2019-05-23T15:20:56.161Z,46.90
2019-05-23T15:23:23.975Z,47.00
2019-05-23T15:25:51.879Z,47.00
2019-05-23T15:28:19.961Z,47.00
2019-05-23T15:30:47.841Z,47.10
2019-05-23T15:33:15.719Z,47.00
2019-05-23T15:35:44.063Z,46.80
2019-05-23T15:38:11.971Z,47.00
2019-05-23T15:40:40.016Z,46.80
2019-05-23T15:43:09.896Z,46.80
2019-05-23T15:45:37.687Z,46.60
2019-05-23T15:48:05.557Z,46.40
2019-05-23T15:50:35.049Z,46.40
2019-05-23T15:53:05.483Z,46.50
2019-05-23T15:55:35.093Z,46.40
2019-05-23T15:58:07.258Z,46.40
2019-05-23T16:00:55.221Z,46.30
2019-05-23T16:03:33.830Z,46.30
2019-05-23T16:06:02.170Z,46.20
2019-05-23T16:08:30.258Z,46.30
2019-05-23T16:10:58.528Z,46.40
2019-05-23T16:13:26.604Z,46.30
2019-05-23T16:15:54.584Z,46.30
2019-05-23T16:18:22.734Z,46.30
2019-05-23T16:20:51.233Z,46.20
2019-05-23T16:23:19.015Z,46.20
2019-05-23T16:25:46.966Z,46.20
2019-05-23T16:28:14.994Z,46.20
2019-05-23T16:30:42.926Z,46.30
2019-05-23T16:33:11.084Z,46.30
2019-05-23T16:35:39.151Z,46.30
2019-05-23T16:38:07.008Z,46.40
2019-05-23T16:40:34.900Z,46.40
2019-05-23T16:43:02.867Z,46.30
2019-05-23T16:45:30.667Z,46.50
2019-05-23T16:47:58.589Z,46.60
2019-05-23T16:50:26.801Z,46.60
2019-05-23T16:52:55.441Z,46.60
2019-05-23T16:55:41.436Z,46.60
2019-05-23T16:58:10.927Z,46.60
2019-05-23T17:00:45.972Z,46.70
2019-05-23T17:03:27.960Z,46.70
2019-05-23T17:06:01.686Z,46.70
2019-05-23T17:08:46.235Z,46.80
2019-05-23T17:11:19.826Z,46.90
2019-05-23T17:13:49.338Z,47.00
2019-05-23T17:16:21.708Z,47.00
2019-05-23T17:18:51.230Z,47.00
2019-05-23T17:21:20.635Z,47.00
2019-05-23T17:23:56.468Z,46.90
2019-05-23T17:26:26.067Z,46.80
2019-05-23T17:28:55.711Z,47.00
2019-05-23T17:31:34.046Z,47.00
2019-05-23T17:34:02.160Z,47.10
2019-05-23T17:36:30.040Z,47.10
2019-05-23T17:38:57.993Z,47.10
2019-05-23T17:41:25.903Z,47.20
2019-05-23T17:43:53.943Z,47.20
2019-05-23T17:46:21.795Z,47.40
2019-05-23T17:48:49.763Z,47.40
2019-05-23T17:51:17.735Z,47.40
2019-05-23T17:53:45.660Z,47.60
2019-05-23T17:56:14.292Z,47.70
2019-05-23T17:58:42.363Z,47.70
2019-05-23T18:01:10.423Z,48.00
2019-05-23T18:03:38.262Z,48.20
2019-05-23T18:06:06.272Z,48.30
2019-05-23T18:08:35.534Z,48.40
2019-05-23T18:11:03.539Z,48.40
2019-05-23T18:13:31.923Z,48.50
2019-05-23T18:15:59.961Z,48.70
2019-05-23T18:18:28.879Z,49.40
2019-05-23T18:20:56.911Z,49.50
2019-05-23T18:23:24.928Z,49.60
2019-05-23T18:25:52.776Z,49.80
2019-05-23T18:28:21.475Z,49.90
2019-05-23T18:30:59.992Z,50.00
2019-05-23T18:33:28.727Z,49.70
2019-05-23T18:35:56.648Z,50.00
2019-05-23T18:38:24.604Z,50.60
2019-05-23T18:41:02.789Z,50.00
2019-05-23T18:43:23.715Z,50.00
2019-05-23T18:45:53.294Z,50.10
2019-05-23T18:48:21.205Z,50.70
2019-05-23T18:50:49.171Z,50.90
2019-05-23T18:53:18.142Z,50.70
2019-05-23T18:55:47.462Z,51.00
2019-05-23T18:58:19.410Z,50.90
2019-05-23T19:00:52.912Z,51.00
2019-05-23T19:03:21.121Z,50.90
2019-05-23T19:05:49.041Z,51.00
2019-05-23T19:08:17.146Z,51.20
2019-05-23T19:10:46.012Z,51.20
2019-05-23T19:13:13.878Z,51.20
2019-05-23T19:15:42.061Z,51.20
2019-05-23T19:18:09.840Z,51.00
2019-05-23T19:20:39.226Z,51.10
2019-05-23T19:23:07.704Z,51.10
2019-05-23T19:25:36.348Z,51.10
2019-05-23T19:28:06.311Z,51.10
2019-05-23T19:30:35.800Z,51.00
2019-05-23T19:33:04.214Z,50.90
2019-05-23T19:35:32.281Z,50.90
2019-05-23T19:38:00.018Z,51.00
2019-05-23T19:40:28.305Z,51.10
2019-05-23T19:42:56.993Z,51.10
2019-05-23T19:45:24.954Z,51.00
2019-05-23T19:47:52.933Z,51.00
2019-05-23T19:50:20.946Z,51.00
2019-05-23T19:52:48.876Z,51.00
2019-05-23T19:55:16.823Z,50.90
2019-05-23T19:57:45.521Z,50.90
2019-05-23T20:00:15.028Z,50.90
2019-05-23T20:02:53.677Z,50.80
2019-05-23T20:05:35.019Z,50.70
2019-05-23T20:08:02.954Z,50.60
2019-05-23T20:10:31.315Z,50.50
2019-05-23T20:12:59.071Z,50.40
2019-05-23T20:15:27.104Z,50.20
2019-05-23T20:17:55.002Z,50.20
2019-05-23T20:20:24.513Z,50.10
2019-05-23T20:22:52.438Z,50.00
2019-05-23T20:25:20.711Z,49.90
2019-05-23T20:27:48.613Z,49.90
2019-05-23T20:30:19.575Z,50.50
2019-05-23T20:32:47.597Z,50.00
2019-05-23T20:35:15.803Z,50.10
2019-05-23T20:37:43.845Z,50.30
2019-05-23T20:40:11.809Z,50.40
2019-05-23T20:42:39.664Z,50.60
2019-05-23T20:45:07.535Z,50.80
2019-05-23T20:47:35.341Z,50.90
2019-05-23T20:50:03.570Z,51.00
2019-05-23T20:52:31.449Z,51.20
2019-05-23T20:54:59.422Z,51.50
2019-05-23T20:57:27.490Z,51.70
2019-05-23T20:59:55.476Z,51.70
2019-05-23T21:02:23.471Z,51.90
2019-05-23T21:04:51.307Z,52.10
2019-05-23T21:07:19.365Z,52.20
2019-05-23T21:09:47.286Z,51.90
2019-05-23T21:12:29.438Z,52.10
2019-05-23T21:14:45.318Z,52.30
2019-05-23T21:17:13.599Z,52.60
2019-05-23T21:19:41.550Z,52.70
2019-05-23T21:22:09.464Z,52.70
2019-05-23T21:24:37.386Z,52.70
2019-05-23T21:27:05.332Z,52.80
2019-05-23T21:29:33.124Z,52.70
2019-05-23T21:32:01.202Z,52.70
2019-05-23T21:34:29.173Z,52.70
2019-05-23T21:36:57.133Z,52.70
2019-05-23T21:39:25.011Z,52.80
2019-05-23T21:41:54.205Z,53.00
2019-05-23T21:44:22.162Z,53.10
2019-05-23T21:46:50.131Z,53.10
2019-05-23T21:49:18.100Z,53.00
2019-05-23T21:51:45.971Z,53.10
2019-05-23T21:54:14.085Z,53.10
2019-05-23T21:56:42.121Z,53.10
2019-05-23T21:59:10.093Z,53.10
2019-05-23T22:01:39.592Z,53.20
2019-05-23T22:04:14.936Z,53.20
2019-05-23T22:06:47.367Z,53.20
2019-05-23T22:09:15.687Z,53.10
2019-05-23T22:11:43.647Z,53.20
2019-05-23T22:14:11.723Z,53.10
2019-05-23T22:16:39.587Z,53.10
2019-05-23T22:19:09.189Z,53.10
2019-05-23T22:21:37.370Z,53.00
2019-05-23T22:24:06.114Z,52.80
2019-05-23T22:26:34.235Z,52.70
2019-05-23T22:29:02.198Z,52.50
2019-05-23T22:31:30.055Z,52.40
2019-05-23T22:34:08.530Z,52.30
2019-05-23T22:36:36.545Z,52.20
2019-05-23T22:39:07.721Z,52.20
2019-05-23T22:41:35.959Z,52.10
2019-05-23T22:44:04.131Z,52.10
2019-05-23T22:46:32.306Z,52.00
2019-05-23T22:49:00.111Z,51.90
2019-05-23T22:51:27.934Z,52.60
2019-05-23T22:53:55.867Z,52.00
2019-05-23T22:56:23.783Z,52.20
2019-05-23T22:58:51.744Z,52.30
2019-05-23T23:01:21.368Z,52.50
2019-05-23T23:03:49.234Z,52.60
2019-05-23T23:06:18.614Z,52.60
2019-05-23T23:08:46.591Z,52.60
2019-05-23T23:11:14.455Z,52.90
2019-05-23T23:13:42.418Z,53.00
2019-05-23T23:16:10.391Z,52.90
2019-05-23T23:18:38.475Z,53.10
2019-05-23T23:21:06.263Z,53.20
2019-05-23T23:23:34.308Z,53.30
2019-05-23T23:26:02.163Z,53.30
2019-05-23T23:28:31.301Z,53.30
2019-05-23T23:30:59.251Z,53.40
2019-05-23T23:33:27.210Z,53.40
2019-05-23T23:35:55.027Z,53.60
2019-05-23T23:38:23.033Z,53.70
2019-05-23T23:40:50.875Z,53.70
2019-05-23T23:43:18.818Z,53.70
2019-05-23T23:46:04.492Z,53.80
2019-05-23T23:48:50.542Z,53.70
2019-05-23T23:51:36.953Z,53.80
2019-05-23T23:54:22.626Z,53.80
2019-05-23T23:57:08.533Z,53.70
2019-05-23T23:59:35.988Z,53.70
